createdAt,value
2018-05-25T00:00:19.866Z,22.92
2018-05-25T00:02:48.170Z,24.35
2018-05-25T00:05:16.774Z,21.90
2018-05-25T00:07:46.096Z,23.70
2018-05-25T00:10:15.231Z,24.70
2018-05-25T00:12:43.776Z,26.17
2018-05-25T00:15:12.226Z,35.88
2018-05-25T00:17:40.594Z,24.23
2018-05-25T00:20:09.286Z,24.07
2018-05-25T00:22:37.665Z,26.17
2018-05-25T00:25:06.071Z,28.57
2018-05-25T00:27:35.157Z,25.05
2018-05-25T00:30:04.286Z,23.43
2018-05-25T00:32:32.766Z,25.62
2018-05-25T00:35:01.568Z,26.17
2018-05-25T00:37:29.942Z,26.80
2018-05-25T00:39:58.325Z,30.80
2018-05-25T00:42:26.821Z,26.73
2018-05-25T00:44:55.187Z,29.13
2018-05-25T00:47:23.707Z,25.07
2018-05-25T00:49:52.066Z,23.27
2018-05-25T00:52:20.400Z,26.20
2018-05-25T00:55:06.698Z,26.40
2018-05-25T00:57:35.113Z,24.83
2018-05-25T01:00:03.478Z,25.37
2018-05-25T01:02:33.492Z,25.12
2018-05-25T01:05:01.981Z,24.90
2018-05-25T01:07:30.417Z,23.87
2018-05-25T01:09:59.528Z,25.37
2018-05-25T01:12:27.862Z,25.13
2018-05-25T01:14:56.468Z,23.67
2018-05-25T01:17:25.781Z,21.17
2018-05-25T01:19:54.358Z,22.90
2018-05-25T01:22:23.713Z,26.05
2018-05-25T01:24:52.102Z,23.13
2018-05-25T01:27:20.441Z,20.92
2018-05-25T01:29:49.069Z,25.52
2018-05-25T01:32:17.718Z,20.10
2018-05-25T01:34:46.349Z,24.92
2018-05-25T01:37:14.913Z,23.10
2018-05-25T01:39:43.277Z,25.93
2018-05-25T01:42:11.569Z,24.57
2018-05-25T01:44:39.932Z,21.80
2018-05-25T01:47:08.252Z,24.70
2018-05-25T01:49:36.596Z,26.67
2018-05-25T01:52:05.526Z,23.37
2018-05-25T01:54:34.633Z,20.93
2018-05-25T01:57:03.831Z,24.37
2018-05-25T01:59:33.090Z,19.70
2018-05-25T02:02:01.692Z,18.03
2018-05-25T02:04:30.276Z,22.30
2018-05-25T02:06:59.800Z,22.07
2018-05-25T02:09:29.114Z,20.10
2018-05-25T02:11:57.473Z,18.37
2018-05-25T02:14:26.599Z,24.10
2018-05-25T02:16:55.866Z,25.77
2018-05-25T02:19:24.323Z,21.53
2018-05-25T02:21:53.068Z,23.20
2018-05-25T02:24:21.557Z,23.93
2018-05-25T02:26:49.913Z,19.23
2018-05-25T02:29:18.316Z,18.13
2018-05-25T02:31:46.966Z,23.08
2018-05-25T02:34:15.481Z,26.00
2018-05-25T02:36:43.817Z,20.80
2018-05-25T02:39:13.836Z,22.67
2018-05-25T02:41:44.075Z,25.77
2018-05-25T02:44:12.427Z,30.67
2018-05-25T02:46:40.842Z,26.23
2018-05-25T02:49:09.140Z,23.50
2018-05-25T02:51:37.548Z,28.87
2018-05-25T02:54:06.069Z,27.20
2018-05-25T02:56:34.433Z,26.63
2018-05-25T02:59:03.562Z,26.87
2018-05-25T03:01:32.007Z,27.50
2018-05-25T03:04:01.168Z,26.07
2018-05-25T03:06:29.513Z,23.87
2018-05-25T03:08:57.830Z,30.67
2018-05-25T03:11:26.761Z,30.35
2018-05-25T03:13:56.033Z,30.62
2018-05-25T03:16:25.851Z,23.25
2018-05-25T03:18:54.493Z,29.00
2018-05-25T03:21:22.859Z,29.27
2018-05-25T03:23:51.211Z,28.20
2018-05-25T03:26:20.451Z,28.27
2018-05-25T03:28:48.811Z,30.23
2018-05-25T03:31:17.756Z,24.83
2018-05-25T03:33:46.107Z,27.07
2018-05-25T03:36:14.481Z,25.40
2018-05-25T03:38:42.848Z,29.56
2018-05-25T03:41:11.245Z,26.63
2018-05-25T03:43:40.731Z,27.25
2018-05-25T03:46:09.176Z,26.90
2018-05-25T03:48:37.560Z,27.00
2018-05-25T03:51:06.669Z,24.87
2018-05-25T03:53:35.017Z,24.70
2018-05-25T03:56:03.606Z,24.87
2018-05-25T03:58:50.717Z,24.92
2018-05-25T04:01:36.819Z,24.23
2018-05-25T04:04:06.134Z,23.33
2018-05-25T04:06:34.627Z,22.60
2018-05-25T04:09:03.001Z,24.73
2018-05-25T04:11:31.650Z,25.45
2018-05-25T04:14:00.018Z,25.30
2018-05-25T04:16:28.346Z,27.10
2018-05-25T04:18:56.682Z,28.30
2018-05-25T04:21:25.442Z,27.90
2018-05-25T04:23:54.022Z,29.70
2018-05-25T04:26:22.389Z,31.40
2018-05-25T04:28:50.846Z,28.97
2018-05-25T04:31:19.337Z,26.48
2018-05-25T04:33:47.657Z,23.30
2018-05-25T04:36:16.188Z,25.13
2018-05-25T04:38:44.780Z,25.52
2018-05-25T04:41:13.326Z,23.83
2018-05-25T04:43:41.658Z,26.00
2018-05-25T04:46:09.995Z,21.80
2018-05-25T04:48:38.328Z,25.57
2018-05-25T04:51:06.860Z,25.83
2018-05-25T04:53:36.072Z,24.07
2018-05-25T04:56:04.492Z,29.80
2018-05-25T04:58:32.928Z,29.40
2018-05-25T05:01:01.269Z,29.80
2018-05-25T05:03:29.699Z,29.63
2018-05-25T05:05:58.134Z,28.00
2018-05-25T05:08:27.974Z,31.30
2018-05-25T05:10:57.119Z,25.30
2018-05-25T05:13:25.575Z,29.97
2018-05-25T05:15:53.992Z,26.20
2018-05-25T05:18:22.458Z,30.43
2018-05-25T05:20:50.835Z,30.47
2018-05-25T05:23:19.180Z,29.23
2018-05-25T05:25:47.620Z,31.10
2018-05-25T05:28:16.068Z,28.97
2018-05-25T05:30:44.523Z,27.40
2018-05-25T05:33:13.180Z,30.67
2018-05-25T05:35:42.526Z,31.87
2018-05-25T05:38:10.907Z,30.45
2018-05-25T05:40:39.173Z,31.80
2018-05-25T05:43:07.524Z,33.20
2018-05-25T05:45:35.845Z,27.40
2018-05-25T05:48:04.370Z,31.90
2018-05-25T05:50:32.895Z,26.20
2018-05-25T05:53:01.456Z,31.40
2018-05-25T05:55:30.043Z,30.03
2018-05-25T05:57:58.747Z,41.63
2018-05-25T06:00:27.125Z,31.58
2018-05-25T06:02:55.692Z,30.20
2018-05-25T06:05:24.023Z,28.20
2018-05-25T06:07:52.638Z,28.90
2018-05-25T06:10:22.132Z,25.50
2018-05-25T06:12:51.483Z,30.37
2018-05-25T06:15:21.331Z,27.65
2018-05-25T06:17:49.675Z,33.70
2018-05-25T06:20:18.026Z,31.17
2018-05-25T06:22:46.368Z,33.10
2018-05-25T06:25:14.770Z,25.30
2018-05-25T06:27:43.968Z,27.13
2018-05-25T06:30:12.454Z,27.12
2018-05-25T06:32:40.932Z,24.83
2018-05-25T06:35:10.106Z,34.43
2018-05-25T06:37:38.434Z,31.80
2018-05-25T06:40:06.885Z,29.73
2018-05-25T06:42:35.988Z,28.55
2018-05-25T06:45:04.388Z,26.97
2018-05-25T06:47:34.638Z,26.73
2018-05-25T06:50:03.076Z,38.43
2018-05-25T06:52:31.498Z,26.70
2018-05-25T06:54:59.928Z,23.70
2018-05-25T06:57:28.259Z,19.73
2018-05-25T06:59:56.642Z,19.48
2018-05-25T07:02:25.190Z,22.37
2018-05-25T07:04:53.819Z,22.33
2018-05-25T07:07:22.220Z,19.77
2018-05-25T07:09:50.594Z,21.12
2018-05-25T07:12:19.796Z,21.30
2018-05-25T07:14:49.039Z,19.77
2018-05-25T07:17:17.380Z,19.43
2018-05-25T07:19:45.703Z,17.53
2018-05-25T07:22:14.043Z,20.77
2018-05-25T07:24:42.528Z,24.80
2018-05-25T07:27:11.103Z,19.03
2018-05-25T07:29:39.445Z,15.87
2018-05-25T07:32:07.755Z,17.47
2018-05-25T07:34:36.837Z,15.20
2018-05-25T07:37:05.339Z,17.35
2018-05-25T07:39:33.657Z,18.27
2018-05-25T07:42:02.060Z,21.87
2018-05-25T07:44:31.231Z,15.53
2018-05-25T07:46:59.618Z,16.97
2018-05-25T07:49:28.089Z,16.90
2018-05-25T07:51:56.603Z,16.33
2018-05-25T07:54:25.822Z,16.43
2018-05-25T07:56:54.191Z,14.60
2018-05-25T07:59:23.338Z,15.27
2018-05-25T08:01:51.700Z,21.33
2018-05-25T08:04:20.069Z,21.87
2018-05-25T08:06:48.561Z,16.17
2018-05-25T08:09:17.211Z,17.90
2018-05-25T08:11:46.452Z,18.53
2018-05-25T08:14:14.899Z,21.63
2018-05-25T08:16:43.264Z,14.23
2018-05-25T08:19:13.643Z,14.57
2018-05-25T08:21:42.061Z,18.13
2018-05-25T08:24:10.511Z,14.60
2018-05-25T08:26:39.058Z,12.63
2018-05-25T08:29:07.650Z,11.27
2018-05-25T08:31:36.284Z,11.90
2018-05-25T08:34:04.824Z,22.45
2018-05-25T08:36:33.326Z,19.43
2018-05-25T08:39:02.228Z,13.67
2018-05-25T08:41:30.565Z,13.83
2018-05-25T08:43:58.874Z,15.68
2018-05-25T08:46:28.447Z,13.45
2018-05-25T08:48:57.059Z,13.77
2018-05-25T08:51:25.828Z,14.17
2018-05-25T08:53:55.316Z,14.03
2018-05-25T08:58:58.243Z,12.07
2018-05-25T09:01:26.618Z,12.60
2018-05-25T09:03:56.396Z,11.23
2018-05-25T09:06:24.945Z,12.17
2018-05-25T09:08:53.323Z,11.10
2018-05-25T09:11:21.807Z,12.07
2018-05-25T09:13:50.363Z,20.83
2018-05-25T09:16:18.746Z,16.57
2018-05-25T09:18:47.199Z,12.70
2018-05-25T09:21:15.604Z,11.27
2018-05-25T09:23:44.939Z,18.30
2018-05-25T09:26:13.334Z,13.40
2018-05-25T09:28:42.540Z,11.43
2018-05-25T09:31:10.908Z,13.73
2018-05-25T09:33:40.093Z,11.40
2018-05-25T09:36:09.341Z,12.67
2018-05-25T09:38:38.018Z,12.17
2018-05-25T09:41:06.505Z,10.93
2018-05-25T09:43:35.061Z,14.10
2018-05-25T09:46:03.528Z,13.57
2018-05-25T09:48:32.687Z,9.75
2018-05-25T09:51:01.145Z,11.50
2018-05-25T09:53:29.736Z,12.20
2018-05-25T09:55:58.215Z,14.60
2018-05-25T09:58:26.756Z,21.40
2018-05-25T10:00:55.884Z,11.07
2018-05-25T10:03:24.390Z,13.80
2018-05-25T10:05:52.784Z,11.73
2018-05-25T10:08:21.186Z,12.27
2018-05-25T10:10:50.248Z,11.20
2018-05-25T10:13:18.685Z,10.53
2018-05-25T10:15:47.050Z,9.00
2018-05-25T10:18:16.208Z,13.53
2018-05-25T10:20:44.541Z,8.83
2018-05-25T10:23:13.033Z,10.27
2018-05-25T10:25:41.481Z,14.20
2018-05-25T10:28:11.758Z,11.23
2018-05-25T10:30:40.204Z,11.82
2018-05-25T10:33:08.669Z,23.57
2018-05-25T10:35:37.974Z,23.57
2018-05-25T10:38:06.456Z,13.20
2018-05-25T10:40:34.847Z,17.03
2018-05-25T10:43:03.382Z,16.53
2018-05-25T10:45:31.732Z,20.02
2018-05-25T10:48:00.118Z,18.97
2018-05-25T10:50:28.511Z,23.63
2018-05-25T10:52:56.902Z,27.57
2018-05-25T10:55:25.300Z,24.07
2018-05-25T10:57:55.780Z,23.10
2018-05-25T11:00:24.276Z,22.90
2018-05-25T11:02:52.665Z,24.57
2018-05-25T11:05:21.030Z,20.67
2018-05-25T11:07:49.830Z,21.57
2018-05-25T11:10:18.247Z,22.33
2018-05-25T11:12:46.603Z,17.07
2018-05-25T11:15:15.789Z,18.10
2018-05-25T11:17:44.225Z,25.05
2018-05-25T11:20:12.670Z,19.33
2018-05-25T11:22:41.889Z,21.73
2018-05-25T11:25:10.435Z,20.13
2018-05-25T11:27:38.922Z,25.13
2018-05-25T11:30:09.150Z,22.80
2018-05-25T11:32:39.706Z,26.33
2018-05-25T11:35:08.245Z,27.70
2018-05-25T11:37:36.670Z,27.10
2018-05-25T11:40:05.159Z,28.10
2018-05-25T11:42:33.479Z,25.33
2018-05-25T11:45:01.891Z,28.57
2018-05-25T11:47:31.064Z,23.73
2018-05-25T11:49:59.591Z,28.55
2018-05-25T11:52:28.159Z,27.90
2018-05-25T11:54:56.460Z,28.63
2018-05-25T11:57:24.826Z,26.62
2018-05-25T11:59:53.649Z,29.00
2018-05-25T12:02:22.045Z,24.13
2018-05-25T12:04:50.517Z,23.97
2018-05-25T12:07:19.039Z,19.60
2018-05-25T12:09:47.604Z,23.60
2018-05-25T12:12:16.755Z,20.90
2018-05-25T12:14:45.141Z,20.37
2018-05-25T12:17:13.534Z,15.02
2018-05-25T12:19:41.905Z,14.43
2018-05-25T12:22:10.544Z,17.35
2018-05-25T12:24:40.084Z,14.43
2018-05-25T12:27:08.387Z,16.37
2018-05-25T12:29:36.735Z,14.33
2018-05-25T12:32:05.381Z,14.07
2018-05-25T12:34:35.737Z,14.23
2018-05-25T12:37:04.165Z,12.00
2018-05-25T12:39:32.493Z,13.73
2018-05-25T12:42:00.992Z,19.60
2018-05-25T12:44:29.432Z,15.10
2018-05-25T12:46:57.824Z,13.47
2018-05-25T12:49:26.386Z,14.30
2018-05-25T12:51:55.602Z,12.32
2018-05-25T12:54:23.966Z,11.40
2018-05-25T12:56:52.375Z,11.33
2018-05-25T12:59:20.849Z,12.07
2018-05-25T13:01:49.222Z,7.17
2018-05-25T13:04:18.481Z,8.03
2018-05-25T13:06:46.990Z,13.90
2018-05-25T13:09:15.517Z,7.47
2018-05-25T13:11:43.896Z,10.37
2018-05-25T13:14:12.460Z,8.00
2018-05-25T13:16:40.884Z,6.83
2018-05-25T13:19:09.283Z,6.05
2018-05-25T13:21:38.514Z,5.73
2018-05-25T13:24:07.731Z,5.53
2018-05-25T13:26:36.118Z,7.55
2018-05-25T13:29:04.657Z,5.95
2018-05-25T13:31:33.248Z,5.07
2018-05-25T13:34:01.744Z,6.57
2018-05-25T13:36:30.955Z,7.37
2018-05-25T13:38:59.265Z,5.87
2018-05-25T13:41:28.399Z,5.87
2018-05-25T13:43:56.755Z,6.27
2018-05-25T13:46:25.999Z,9.00
2018-05-25T13:48:54.451Z,9.23
2018-05-25T13:51:22.815Z,6.50
2018-05-25T13:53:51.220Z,4.53
2018-05-25T13:56:19.598Z,5.27
2018-05-25T13:58:48.117Z,5.00
2018-05-25T14:01:16.456Z,5.07
2018-05-25T14:03:44.931Z,5.77
2018-05-25T14:06:13.526Z,6.70
2018-05-25T14:08:42.892Z,6.40
2018-05-25T14:11:12.027Z,7.07
2018-05-25T14:13:40.490Z,8.80
2018-05-25T14:16:08.839Z,11.63
2018-05-25T14:18:37.969Z,6.37
2018-05-25T14:21:06.347Z,5.95
2018-05-25T14:23:34.866Z,12.52
2018-05-25T14:26:03.472Z,7.03
2018-05-25T14:28:32.812Z,7.65
2018-05-25T14:31:01.197Z,8.90
2018-05-25T14:33:29.612Z,11.25
2018-05-25T14:35:58.347Z,8.97
2018-05-25T14:38:26.827Z,8.07
2018-05-25T14:40:55.245Z,7.55
2018-05-25T14:43:23.567Z,5.77
2018-05-25T14:45:52.735Z,6.03
2018-05-25T14:48:21.311Z,10.13
2018-05-25T14:50:49.841Z,6.27
2018-05-25T14:53:18.225Z,7.87
2018-05-25T14:55:46.575Z,6.43
2018-05-25T14:58:15.728Z,5.27
2018-05-25T15:00:45.707Z,5.43
2018-05-25T15:03:14.310Z,7.13
2018-05-25T15:05:42.797Z,8.57
2018-05-25T15:08:11.220Z,6.73
2018-05-25T15:10:40.726Z,4.60
2018-05-25T15:13:09.169Z,7.30
2018-05-25T15:15:37.781Z,5.30
2018-05-25T15:18:06.436Z,4.87
2018-05-25T15:20:35.682Z,4.30
2018-05-25T15:23:05.574Z,4.03
2018-05-25T15:25:34.044Z,4.13
2018-05-25T15:28:02.430Z,3.70
2018-05-25T15:30:30.846Z,5.03
2018-05-25T15:33:00.167Z,6.55
2018-05-25T15:35:28.834Z,6.28
2018-05-25T15:37:58.171Z,5.07
2018-05-25T15:40:26.591Z,4.50
2018-05-25T15:42:55.112Z,5.13
2018-05-25T15:45:23.663Z,3.67
2018-05-25T15:47:53.052Z,3.85
2018-05-25T15:50:22.711Z,3.80
2018-05-25T15:52:51.610Z,7.03
2018-05-25T15:55:20.175Z,4.57
2018-05-25T15:57:48.722Z,5.30
2018-05-25T16:00:19.315Z,6.13
2018-05-25T16:02:47.742Z,4.93
2018-05-25T16:05:16.899Z,4.17
2018-05-25T16:07:45.362Z,4.73
2018-05-25T16:10:13.727Z,5.90
2018-05-25T16:12:42.421Z,4.30
2018-05-25T16:15:10.907Z,7.90
2018-05-25T16:17:39.467Z,9.38
2018-05-25T16:20:07.798Z,7.68
2018-05-25T16:22:36.913Z,5.53
2018-05-25T16:25:06.220Z,7.25
2018-05-25T16:27:34.857Z,5.53
2018-05-25T16:30:03.240Z,4.28
2018-05-25T16:32:31.680Z,4.18
2018-05-25T16:35:00.051Z,3.72
2018-05-25T16:37:28.465Z,4.10
2018-05-25T16:39:56.921Z,4.87
2018-05-25T16:42:25.427Z,6.17
2018-05-25T16:44:54.876Z,4.07
2018-05-25T16:47:23.388Z,6.18
2018-05-25T16:49:51.986Z,7.83
2018-05-25T16:52:20.538Z,3.80
2018-05-25T16:54:49.111Z,4.00
2018-05-25T16:57:17.728Z,3.20
2018-05-25T16:59:46.037Z,3.37
2018-05-25T17:02:14.430Z,3.53
2018-05-25T17:04:43.682Z,3.65
2018-05-25T17:07:12.382Z,7.70
2018-05-25T17:09:40.883Z,4.32
2018-05-25T17:12:09.226Z,6.73
2018-05-25T17:14:37.614Z,5.03
2018-05-25T17:17:06.021Z,8.27
2018-05-25T17:19:36.030Z,3.73
2018-05-25T17:22:04.466Z,3.87
2018-05-25T17:24:33.087Z,4.97
2018-05-25T17:27:01.698Z,3.63
2018-05-25T17:29:30.836Z,3.77
2018-05-25T17:31:59.218Z,4.85
2018-05-25T17:34:27.585Z,4.50
2018-05-25T17:36:56.176Z,3.50
2018-05-25T17:39:24.708Z,6.87
2018-05-25T17:41:53.898Z,6.93
2018-05-25T17:44:23.132Z,4.03
2018-05-25T17:46:51.523Z,3.83
2018-05-25T17:49:19.930Z,4.33
2018-05-25T17:51:48.213Z,7.27
2018-05-25T17:54:17.395Z,4.60
2018-05-25T17:56:45.844Z,4.97
2018-05-25T17:59:14.339Z,3.93
2018-05-25T18:01:43.852Z,6.27
2018-05-25T18:04:12.226Z,3.63
2018-05-25T18:06:40.612Z,4.12
2018-05-25T18:09:09.173Z,4.05
2018-05-25T18:11:37.712Z,6.15
2018-05-25T18:14:06.052Z,5.37
2018-05-25T18:16:34.418Z,4.27
2018-05-25T18:19:02.894Z,6.77
2018-05-25T18:21:31.695Z,11.97
2018-05-25T18:24:00.688Z,5.80
2018-05-25T18:26:29.196Z,4.67
2018-05-25T18:28:58.471Z,6.03
2018-05-25T18:31:26.843Z,4.87
2018-05-25T18:33:55.201Z,4.72
2018-05-25T18:36:23.638Z,6.00
2018-05-25T18:38:52.427Z,6.10
2018-05-25T18:41:20.785Z,6.47
2018-05-25T18:43:49.357Z,10.73
2018-05-25T18:46:18.500Z,9.27
2018-05-25T18:48:46.912Z,6.47
2018-05-25T18:51:15.512Z,6.13
2018-05-25T18:53:44.041Z,7.53
2018-05-25T18:56:12.556Z,5.17
2018-05-25T18:58:41.225Z,5.47
2018-05-25T19:01:10.727Z,10.10
2018-05-25T19:03:39.304Z,11.12
2018-05-25T19:06:07.924Z,10.77
2018-05-25T19:08:36.422Z,6.62
2018-05-25T19:11:05.841Z,8.93
2018-05-25T19:13:34.309Z,8.43
2018-05-25T19:16:02.841Z,10.57
2018-05-25T19:18:31.817Z,13.77
2018-05-25T19:21:00.438Z,8.00
2018-05-25T19:23:29.833Z,15.13
2018-05-25T19:25:59.955Z,13.20
2018-05-25T19:28:29.057Z,10.63
2018-05-25T19:30:58.616Z,11.20
2018-05-25T19:33:26.959Z,9.70
2018-05-25T19:35:55.646Z,8.70
2018-05-25T19:38:24.011Z,8.13
2018-05-25T19:40:52.587Z,10.90
2018-05-25T19:43:21.771Z,7.17
2018-05-25T19:45:50.237Z,8.90
2018-05-25T19:48:18.874Z,11.25
2018-05-25T19:50:47.293Z,7.40
2018-05-25T19:53:15.829Z,6.13
2018-05-25T19:55:44.533Z,11.17
2018-05-25T19:58:13.053Z,10.80
2018-05-25T20:00:41.503Z,7.70
2018-05-25T20:03:09.920Z,12.10
2018-05-25T20:05:38.522Z,7.40
2018-05-25T20:08:06.888Z,8.27
2018-05-25T20:10:36.068Z,6.65
2018-05-25T20:13:05.397Z,11.12
2018-05-25T20:15:34.208Z,7.75
2018-05-25T20:18:02.612Z,6.03
2018-05-25T20:20:31.059Z,11.77
2018-05-25T20:22:59.621Z,8.87
2018-05-25T20:25:28.074Z,10.17
2018-05-25T20:27:57.492Z,10.00
2018-05-25T20:30:26.850Z,25.10
2018-05-25T20:32:56.346Z,19.55
2018-05-25T20:35:25.023Z,10.80
2018-05-25T20:37:53.484Z,9.57
2018-05-25T20:40:21.987Z,8.27
2018-05-25T20:42:51.032Z,7.83
2018-05-25T20:45:19.958Z,8.53
2018-05-25T20:47:48.541Z,9.23
2018-05-25T20:50:17.133Z,9.95
2018-05-25T20:52:45.807Z,9.57
2018-05-25T20:55:14.274Z,8.67
2018-05-25T20:57:42.658Z,9.17
2018-05-25T21:00:11.237Z,11.27
2018-05-25T21:02:39.780Z,8.07
2018-05-25T21:05:09.066Z,8.23
2018-05-25T21:07:37.514Z,14.00
2018-05-25T21:10:06.067Z,9.10
2018-05-25T21:12:34.556Z,6.77
2018-05-25T21:15:03.163Z,7.35
2018-05-25T21:17:31.723Z,10.20
2018-05-25T21:20:00.175Z,11.43
2018-05-25T21:22:28.620Z,10.53
2018-05-25T21:24:57.932Z,9.80
2018-05-25T21:27:27.282Z,7.27
2018-05-25T21:29:55.892Z,8.27
2018-05-25T21:32:25.083Z,6.37
2018-05-25T21:34:54.857Z,9.00
2018-05-25T21:37:23.283Z,7.77
2018-05-25T21:39:51.811Z,9.37
2018-05-25T21:42:20.586Z,13.73
2018-05-25T21:44:48.971Z,29.33
2018-05-25T21:47:17.582Z,19.03
2018-05-25T21:49:46.108Z,11.60
2018-05-25T21:52:15.365Z,11.25
2018-05-25T21:54:43.687Z,8.73
2018-05-25T21:57:12.877Z,6.80
2018-05-25T21:59:42.057Z,7.27
2018-05-25T22:02:10.516Z,8.38
2018-05-25T22:04:39.003Z,10.33
2018-05-25T22:07:07.430Z,7.00
2018-05-25T22:09:36.011Z,10.40
2018-05-25T22:12:04.494Z,11.30
2018-05-25T22:14:32.974Z,12.73
2018-05-25T22:17:01.329Z,9.47
2018-05-25T22:19:30.654Z,10.90
2018-05-25T22:21:59.194Z,8.38
2018-05-25T22:24:27.572Z,10.00
2018-05-25T22:26:55.980Z,7.43
2018-05-25T22:29:24.497Z,8.52
2018-05-25T22:31:53.144Z,11.80
2018-05-25T22:34:21.722Z,9.27
2018-05-25T22:36:51.948Z,10.80
2018-05-25T22:39:20.279Z,9.37
2018-05-25T22:41:55.868Z,8.88
2018-05-25T22:44:43.598Z,23.48
2018-05-25T22:47:29.768Z,46.85
2018-05-25T22:50:16.602Z,16.60
2018-05-25T22:52:49.598Z,9.90
2018-05-25T22:55:18.259Z,9.90
2018-05-25T22:57:47.436Z,9.73
2018-05-25T23:00:15.860Z,11.03
2018-05-25T23:02:44.408Z,9.05
2018-05-25T23:05:12.819Z,9.23
2018-05-25T23:07:41.174Z,12.73
2018-05-25T23:10:10.398Z,8.30
2018-05-25T23:12:39.136Z,10.40
2018-05-25T23:15:07.587Z,9.60
2018-05-25T23:17:36.017Z,8.23
2018-05-25T23:20:05.200Z,11.48
2018-05-25T23:22:33.505Z,12.37
2018-05-25T23:25:02.080Z,9.50
2018-05-25T23:27:31.303Z,12.53
2018-05-25T23:29:59.853Z,10.80
2018-05-25T23:32:28.357Z,9.35
2018-05-25T23:34:56.764Z,12.93
2018-05-25T23:37:25.335Z,12.37
2018-05-25T23:39:54.839Z,14.02
2018-05-25T23:42:23.159Z,9.80
2018-05-25T23:44:51.499Z,8.23
2018-05-25T23:47:21.599Z,11.88
2018-05-25T23:49:49.991Z,11.57
2018-05-25T23:52:18.303Z,9.03
2018-05-25T23:54:46.669Z,10.03
2018-05-25T23:57:15.107Z,10.47
2018-05-25T23:59:43.651Z,10.57
